sensor_id;sensor_type;location;lat;lon;timestamp;P1;durP1;ratioP1;P2;durP2;ratioP2
20649;SDS011;10484;48.736;9.332;2022-11-15T00:00:24;7.97;;;5.25;;
20649;SDS011;10484;48.736;9.332;2022-11-15T00:02:52;6.10;;;4.83;;
20649;SDS011;10484;48.736;9.332;2022-11-15T00:05:18;7.57;;;5.63;;
20649;SDS011;10484;48.736;9.332;2022-11-15T00:07:43;6.60;;;5.10;;
20649;SDS011;10484;48.736;9.332;2022-11-15T00:10:09;6.67;;;5.97;;
20649;SDS011;10484;48.736;9.332;2022-11-15T00:12:34;5.63;;;4.70;;
20649;SDS011;10484;48.736;9.332;2022-11-15T00:15:00;7.67;;;5.37;;
20649;SDS011;10484;48.736;9.332;2022-11-15T00:17:26;6.13;;;4.93;;
20649;SDS011;10484;48.736;9.332;2022-11-15T00:19:51;9.00;;;5.93;;
20649;SDS011;10484;48.736;9.332;2022-11-15T00:22:17;11.57;;;5.83;;
20649;SDS011;10484;48.736;9.332;2022-11-15T00:24:42;7.90;;;5.27;;
20649;SDS011;10484;48.736;9.332;2022-11-15T00:27:08;8.70;;;5.80;;
20649;SDS011;10484;48.736;9.332;2022-11-15T00:29:34;8.40;;;5.77;;
20649;SDS011;10484;48.736;9.332;2022-11-15T00:31:59;8.70;;;5.63;;
20649;SDS011;10484;48.736;9.332;2022-11-15T00:34:25;6.93;;;4.33;;
20649;SDS011;10484;48.736;9.332;2022-11-15T00:36:50;6.10;;;4.70;;
20649;SDS011;10484;48.736;9.332;2022-11-15T00:39:16;10.17;;;5.67;;
20649;SDS011;10484;48.736;9.332;2022-11-15T00:41:42;6.00;;;4.93;;
20649;SDS011;10484;48.736;9.332;2022-11-15T00:44:07;7.80;;;5.10;;
20649;SDS011;10484;48.736;9.332;2022-11-15T00:46:33;8.10;;;4.73;;
20649;SDS011;10484;48.736;9.332;2022-11-15T00:48:58;8.60;;;5.83;;
20649;SDS011;10484;48.736;9.332;2022-11-15T00:51:24;8.70;;;6.60;;
20649;SDS011;10484;48.736;9.332;2022-11-15T00:53:50;9.30;;;5.37;;
20649;SDS011;10484;48.736;9.332;2022-11-15T00:56:15;8.80;;;5.20;;
20649;SDS011;10484;48.736;9.332;2022-11-15T00:58:41;7.50;;;5.00;;
20649;SDS011;10484;48.736;9.332;2022-11-15T01:01:10;9.20;;;5.03;;
20649;SDS011;10484;48.736;9.332;2022-11-15T01:03:38;6.40;;;4.25;;
20649;SDS011;10484;48.736;9.332;2022-11-15T01:06:05;7.43;;;4.53;;
20649;SDS011;10484;48.736;9.332;2022-11-15T01:08:31;7.70;;;5.00;;
20649;SDS011;10484;48.736;9.332;2022-11-15T01:11:03;6.30;;;3.90;;
20649;SDS011;10484;48.736;9.332;2022-11-15T01:13:32;6.13;;;4.35;;
20649;SDS011;10484;48.736;9.332;2022-11-15T01:15:58;4.80;;;3.55;;
20649;SDS011;10484;48.736;9.332;2022-11-15T01:18:30;6.70;;;4.22;;
20649;SDS011;10484;48.736;9.332;2022-11-15T01:20:56;6.77;;;4.67;;
20649;SDS011;10484;48.736;9.332;2022-11-15T01:23:21;5.60;;;4.50;;
20649;SDS011;10484;48.736;9.332;2022-11-15T01:25:47;5.20;;;4.00;;
20649;SDS011;10484;48.736;9.332;2022-11-15T01:28:13;7.33;;;4.70;;
20649;SDS011;10484;48.736;9.332;2022-11-15T01:30:38;6.22;;;4.30;;
20649;SDS011;10484;48.736;9.332;2022-11-15T01:33:04;4.93;;;3.97;;
20649;SDS011;10484;48.736;9.332;2022-11-15T01:35:30;5.10;;;3.83;;
20649;SDS011;10484;48.736;9.332;2022-11-15T01:37:55;8.40;;;3.70;;
20649;SDS011;10484;48.736;9.332;2022-11-15T01:40:21;7.60;;;4.27;;
20649;SDS011;10484;48.736;9.332;2022-11-15T01:42:46;5.60;;;4.10;;
20649;SDS011;10484;48.736;9.332;2022-11-15T01:45:13;6.40;;;3.80;;
20649;SDS011;10484;48.736;9.332;2022-11-15T01:47:40;5.07;;;4.00;;
20649;SDS011;10484;48.736;9.332;2022-11-15T01:50:12;5.18;;;3.70;;
20649;SDS011;10484;48.736;9.332;2022-11-15T01:52:41;9.57;;;4.67;;
20649;SDS011;10484;48.736;9.332;2022-11-15T01:55:13;4.05;;;3.00;;
20649;SDS011;10484;48.736;9.332;2022-11-15T01:57:42;4.85;;;3.50;;
20649;SDS011;10484;48.736;9.332;2022-11-15T02:00:10;3.75;;;3.13;;
20649;SDS011;10484;48.736;9.332;2022-11-15T02:02:36;4.30;;;3.33;;
20649;SDS011;10484;48.736;9.332;2022-11-15T02:05:03;3.35;;;3.03;;
20649;SDS011;10484;48.736;9.332;2022-11-15T02:07:29;5.55;;;3.38;;
20649;SDS011;10484;48.736;9.332;2022-11-15T02:09:58;3.35;;;3.05;;
20649;SDS011;10484;48.736;9.332;2022-11-15T02:12:29;4.82;;;3.25;;
20649;SDS011;10484;48.736;9.332;2022-11-15T02:14:55;4.63;;;3.30;;
20649;SDS011;10484;48.736;9.332;2022-11-15T02:17:28;4.20;;;2.70;;
20649;SDS011;10484;48.736;9.332;2022-11-15T02:22:57;5.72;;;2.92;;
20649;SDS011;10484;48.736;9.332;2022-11-15T02:31:18;3.53;;;2.85;;
20649;SDS011;10484;48.736;9.332;2022-11-15T02:36:25;4.72;;;2.90;;
20649;SDS011;10484;48.736;9.332;2022-11-15T02:39:16;2.60;;;2.00;;
20649;SDS011;10484;48.736;9.332;2022-11-15T02:41:53;3.10;;;2.55;;
20649;SDS011;10484;48.736;9.332;2022-11-15T02:44:27;2.58;;;2.20;;
20649;SDS011;10484;48.736;9.332;2022-11-15T02:46:58;2.70;;;2.45;;
20649;SDS011;10484;48.736;9.332;2022-11-15T02:49:39;5.05;;;2.72;;
20649;SDS011;10484;48.736;9.332;2022-11-15T02:52:08;4.88;;;2.60;;
20649;SDS011;10484;48.736;9.332;2022-11-15T02:54:34;2.37;;;2.17;;
20649;SDS011;10484;48.736;9.332;2022-11-15T02:57:04;3.03;;;2.10;;
20649;SDS011;10484;48.736;9.332;2022-11-15T02:59:39;6.43;;;3.10;;
20649;SDS011;10484;48.736;9.332;2022-11-15T03:02:16;3.42;;;2.28;;
20649;SDS011;10484;48.736;9.332;2022-11-15T03:05:24;3.20;;;2.45;;
20649;SDS011;10484;48.736;9.332;2022-11-15T03:15:44;3.03;;;2.55;;
20649;SDS011;10484;48.736;9.332;2022-11-15T03:20:46;3.10;;;2.70;;
20649;SDS011;10484;48.736;9.332;2022-11-15T03:23:14;4.45;;;2.47;;
20649;SDS011;10484;48.736;9.332;2022-11-15T03:25:41;3.45;;;2.38;;
20649;SDS011;10484;48.736;9.332;2022-11-15T03:28:12;2.75;;;1.80;;
20649;SDS011;10484;48.736;9.332;2022-11-15T03:30:41;3.22;;;2.50;;
20649;SDS011;10484;48.736;9.332;2022-11-15T03:33:08;4.60;;;2.63;;
20649;SDS011;10484;48.736;9.332;2022-11-15T03:35:37;4.30;;;2.80;;
20649;SDS011;10484;48.736;9.332;2022-11-15T03:40:45;2.65;;;2.35;;
20649;SDS011;10484;48.736;9.332;2022-11-15T03:43:41;7.07;;;2.25;;
20649;SDS011;10484;48.736;9.332;2022-11-15T03:46:19;4.85;;;2.50;;
20649;SDS011;10484;48.736;9.332;2022-11-15T03:48:52;4.05;;;2.55;;
20649;SDS011;10484;48.736;9.332;2022-11-15T03:51:22;3.47;;;2.33;;
20649;SDS011;10484;48.736;9.332;2022-11-15T03:53:47;3.73;;;2.50;;
20649;SDS011;10484;48.736;9.332;2022-11-15T03:56:13;3.10;;;2.40;;
20649;SDS011;10484;48.736;9.332;2022-11-15T03:58:39;5.03;;;2.67;;
20649;SDS011;10484;48.736;9.332;2022-11-15T04:01:04;5.40;;;2.87;;
20649;SDS011;10484;48.736;9.332;2022-11-15T04:03:30;3.87;;;2.90;;
20649;SDS011;10484;48.736;9.332;2022-11-15T04:05:56;3.30;;;2.50;;
20649;SDS011;10484;48.736;9.332;2022-11-15T04:08:21;7.23;;;2.67;;
20649;SDS011;10484;48.736;9.332;2022-11-15T04:10:48;3.47;;;2.80;;
20649;SDS011;10484;48.736;9.332;2022-11-15T04:13:14;4.15;;;2.60;;
20649;SDS011;10484;48.736;9.332;2022-11-15T04:15:40;6.80;;;3.40;;
20649;SDS011;10484;48.736;9.332;2022-11-15T04:18:06;3.57;;;3.27;;
20649;SDS011;10484;48.736;9.332;2022-11-15T04:20:31;3.73;;;2.87;;
20649;SDS011;10484;48.736;9.332;2022-11-15T04:23:17;4.25;;;3.42;;
20649;SDS011;10484;48.736;9.332;2022-11-15T04:26:12;4.60;;;2.85;;
20649;SDS011;10484;48.736;9.332;2022-11-15T04:28:41;4.30;;;2.95;;
20649;SDS011;10484;48.736;9.332;2022-11-15T04:31:25;4.68;;;3.38;;
20649;SDS011;10484;48.736;9.332;2022-11-15T04:33:52;4.38;;;2.65;;
20649;SDS011;10484;48.736;9.332;2022-11-15T04:36:18;6.05;;;2.92;;
20649;SDS011;10484;48.736;9.332;2022-11-15T04:39:02;4.45;;;3.55;;
20649;SDS011;10484;48.736;9.332;2022-11-15T04:41:28;3.80;;;2.83;;
20649;SDS011;10484;48.736;9.332;2022-11-15T04:43:54;4.60;;;3.30;;
20649;SDS011;10484;48.736;9.332;2022-11-15T04:46:20;4.80;;;3.60;;
20649;SDS011;10484;48.736;9.332;2022-11-15T04:48:46;5.07;;;2.70;;
20649;SDS011;10484;48.736;9.332;2022-11-15T04:51:12;5.03;;;2.70;;
20649;SDS011;10484;48.736;9.332;2022-11-15T04:53:37;3.47;;;2.27;;
20649;SDS011;10484;48.736;9.332;2022-11-15T04:56:03;3.37;;;2.63;;
20649;SDS011;10484;48.736;9.332;2022-11-15T04:58:29;3.87;;;2.83;;
20649;SDS011;10484;48.736;9.332;2022-11-15T05:00:54;5.90;;;3.03;;
20649;SDS011;10484;48.736;9.332;2022-11-15T05:03:20;3.77;;;2.80;;
20649;SDS011;10484;48.736;9.332;2022-11-15T05:06:05;4.22;;;2.10;;
20649;SDS011;10484;48.736;9.332;2022-11-15T05:08:31;3.15;;;2.15;;
20649;SDS011;10484;48.736;9.332;2022-11-15T05:10:57;4.78;;;2.50;;
20649;SDS011;10484;48.736;9.332;2022-11-15T05:13:23;3.00;;;2.27;;
20649;SDS011;10484;48.736;9.332;2022-11-15T05:15:50;2.97;;;2.10;;
20649;SDS011;10484;48.736;9.332;2022-11-15T05:18:15;3.20;;;2.57;;
20649;SDS011;10484;48.736;9.332;2022-11-15T05:20:41;4.40;;;2.40;;
20649;SDS011;10484;48.736;9.332;2022-11-15T05:23:07;3.83;;;2.90;;
20649;SDS011;10484;48.736;9.332;2022-11-15T05:25:32;4.17;;;3.10;;
20649;SDS011;10484;48.736;9.332;2022-11-15T05:27:58;3.27;;;1.93;;
20649;SDS011;10484;48.736;9.332;2022-11-15T05:30:23;3.77;;;2.40;;
20649;SDS011;10484;48.736;9.332;2022-11-15T05:32:49;4.43;;;3.13;;
20649;SDS011;10484;48.736;9.332;2022-11-15T05:35:18;3.57;;;2.53;;
20649;SDS011;10484;48.736;9.332;2022-11-15T05:37:50;3.58;;;2.42;;
20649;SDS011;10484;48.736;9.332;2022-11-15T05:40:16;4.43;;;2.97;;
20649;SDS011;10484;48.736;9.332;2022-11-15T05:42:42;4.70;;;2.47;;
20649;SDS011;10484;48.736;9.332;2022-11-15T05:45:07;5.37;;;2.80;;
20649;SDS011;10484;48.736;9.332;2022-11-15T05:47:34;4.97;;;4.00;;
20649;SDS011;10484;48.736;9.332;2022-11-15T05:50:04;3.92;;;2.60;;
20649;SDS011;10484;48.736;9.332;2022-11-15T05:52:30;5.00;;;3.03;;
20649;SDS011;10484;48.736;9.332;2022-11-15T05:55:00;5.07;;;2.70;;
20649;SDS011;10484;48.736;9.332;2022-11-15T05:57:27;3.47;;;2.42;;
20649;SDS011;10484;48.736;9.332;2022-11-15T05:59:53;5.40;;;3.30;;
20649;SDS011;10484;48.736;9.332;2022-11-15T06:02:20;6.35;;;2.97;;
20649;SDS011;10484;48.736;9.332;2022-11-15T06:04:46;6.60;;;3.90;;
20649;SDS011;10484;48.736;9.332;2022-11-15T06:07:12;5.45;;;3.78;;
20649;SDS011;10484;48.736;9.332;2022-11-15T06:09:37;4.47;;;3.93;;
20649;SDS011;10484;48.736;9.332;2022-11-15T06:12:03;4.97;;;3.60;;
20649;SDS011;10484;48.736;9.332;2022-11-15T06:14:28;3.93;;;3.27;;
20649;SDS011;10484;48.736;9.332;2022-11-15T06:16:55;7.57;;;4.10;;
20649;SDS011;10484;48.736;9.332;2022-11-15T06:19:20;3.90;;;2.97;;
20649;SDS011;10484;48.736;9.332;2022-11-15T06:21:46;5.97;;;3.63;;
20649;SDS011;10484;48.736;9.332;2022-11-15T06:24:11;3.83;;;2.97;;
20649;SDS011;10484;48.736;9.332;2022-11-15T06:26:37;4.83;;;2.80;;
20649;SDS011;10484;48.736;9.332;2022-11-15T06:29:03;3.10;;;2.80;;
20649;SDS011;10484;48.736;9.332;2022-11-15T06:31:29;4.18;;;2.92;;
20649;SDS011;10484;48.736;9.332;2022-11-15T06:33:55;3.97;;;2.57;;
20649;SDS011;10484;48.736;9.332;2022-11-15T06:36:20;4.03;;;2.93;;
20649;SDS011;10484;48.736;9.332;2022-11-15T06:38:46;5.00;;;2.50;;
20649;SDS011;10484;48.736;9.332;2022-11-15T06:41:12;4.90;;;2.87;;
20649;SDS011;10484;48.736;9.332;2022-11-15T06:43:39;4.82;;;2.45;;
20649;SDS011;10484;48.736;9.332;2022-11-15T06:46:06;4.82;;;3.67;;
20649;SDS011;10484;48.736;9.332;2022-11-15T06:48:32;4.80;;;2.63;;
20649;SDS011;10484;48.736;9.332;2022-11-15T06:50:59;4.47;;;2.90;;
20649;SDS011;10484;48.736;9.332;2022-11-15T06:53:26;2.58;;;1.98;;
20649;SDS011;10484;48.736;9.332;2022-11-15T06:55:53;4.70;;;3.05;;
20649;SDS011;10484;48.736;9.332;2022-11-15T06:58:22;5.75;;;3.72;;
20649;SDS011;10484;48.736;9.332;2022-11-15T07:00:48;5.50;;;3.40;;
20649;SDS011;10484;48.736;9.332;2022-11-15T07:03:14;5.80;;;4.10;;
20649;SDS011;10484;48.736;9.332;2022-11-15T07:05:39;8.97;;;4.17;;
20649;SDS011;10484;48.736;9.332;2022-11-15T07:08:05;4.87;;;3.70;;
20649;SDS011;10484;48.736;9.332;2022-11-15T07:10:30;8.87;;;5.10;;
20649;SDS011;10484;48.736;9.332;2022-11-15T07:12:56;6.27;;;4.50;;
20649;SDS011;10484;48.736;9.332;2022-11-15T07:15:23;7.33;;;4.27;;
20649;SDS011;10484;48.736;9.332;2022-11-15T07:17:49;8.80;;;4.80;;
20649;SDS011;10484;48.736;9.332;2022-11-15T07:20:15;8.17;;;5.37;;
20649;SDS011;10484;48.736;9.332;2022-11-15T07:22:42;7.50;;;5.35;;
20649;SDS011;10484;48.736;9.332;2022-11-15T07:25:10;7.97;;;5.45;;
20649;SDS011;10484;48.736;9.332;2022-11-15T07:27:36;8.45;;;4.97;;
20649;SDS011;10484;48.736;9.332;2022-11-15T07:30:02;7.80;;;5.00;;
20649;SDS011;10484;48.736;9.332;2022-11-15T07:32:28;9.68;;;5.03;;
20649;SDS011;10484;48.736;9.332;2022-11-15T07:34:54;6.97;;;4.60;;
20649;SDS011;10484;48.736;9.332;2022-11-15T07:37:19;7.03;;;4.90;;
20649;SDS011;10484;48.736;9.332;2022-11-15T07:39:45;8.57;;;5.60;;
20649;SDS011;10484;48.736;9.332;2022-11-15T07:42:11;8.57;;;5.33;;
20649;SDS011;10484;48.736;9.332;2022-11-15T07:44:55;9.77;;;5.20;;
20649;SDS011;10484;48.736;9.332;2022-11-15T07:47:21;10.30;;;6.37;;
20649;SDS011;10484;48.736;9.332;2022-11-15T07:49:46;8.83;;;6.20;;
20649;SDS011;10484;48.736;9.332;2022-11-15T07:52:12;9.83;;;6.73;;
20649;SDS011;10484;48.736;9.332;2022-11-15T07:54:38;8.37;;;6.17;;
20649;SDS011;10484;48.736;9.332;2022-11-15T07:57:04;9.27;;;6.90;;
20649;SDS011;10484;48.736;9.332;2022-11-15T07:59:30;14.43;;;9.60;;
20649;SDS011;10484;48.736;9.332;2022-11-15T08:01:56;10.97;;;8.00;;
20649;SDS011;10484;48.736;9.332;2022-11-15T08:04:21;12.27;;;8.00;;
20649;SDS011;10484;48.736;9.332;2022-11-15T08:06:47;15.90;;;8.23;;
20649;SDS011;10484;48.736;9.332;2022-11-15T08:09:13;16.87;;;8.10;;
20649;SDS011;10484;48.736;9.332;2022-11-15T08:11:38;11.90;;;7.57;;
20649;SDS011;10484;48.736;9.332;2022-11-15T08:14:04;12.00;;;8.50;;
20649;SDS011;10484;48.736;9.332;2022-11-15T08:16:30;13.77;;;8.97;;
20649;SDS011;10484;48.736;9.332;2022-11-15T08:18:55;16.77;;;9.30;;
20649;SDS011;10484;48.736;9.332;2022-11-15T08:21:21;13.20;;;8.03;;
20649;SDS011;10484;48.736;9.332;2022-11-15T08:23:47;12.85;;;8.20;;
20649;SDS011;10484;48.736;9.332;2022-11-15T08:26:13;13.13;;;8.13;;
20649;SDS011;10484;48.736;9.332;2022-11-15T08:28:39;15.75;;;10.38;;
20649;SDS011;10484;48.736;9.332;2022-11-15T08:31:05;14.53;;;10.10;;
20649;SDS011;10484;48.736;9.332;2022-11-15T08:33:32;14.93;;;9.80;;
20649;SDS011;10484;48.736;9.332;2022-11-15T08:35:58;15.55;;;9.85;;
20649;SDS011;10484;48.736;9.332;2022-11-15T08:38:25;14.10;;;9.13;;
20649;SDS011;10484;48.736;9.332;2022-11-15T08:40:54;17.45;;;11.63;;
20649;SDS011;10484;48.736;9.332;2022-11-15T08:43:26;18.85;;;12.75;;
20649;SDS011;10484;48.736;9.332;2022-11-15T08:45:51;18.60;;;11.17;;
20649;SDS011;10484;48.736;9.332;2022-11-15T08:48:21;15.27;;;10.82;;
20649;SDS011;10484;48.736;9.332;2022-11-15T08:50:46;20.73;;;14.50;;
20649;SDS011;10484;48.736;9.332;2022-11-15T08:53:12;17.47;;;10.70;;
20649;SDS011;10484;48.736;9.332;2022-11-15T08:55:38;14.17;;;8.93;;
20649;SDS011;10484;48.736;9.332;2022-11-15T08:58:04;11.23;;;8.77;;
20649;SDS011;10484;48.736;9.332;2022-11-15T09:00:30;12.53;;;9.53;;
20649;SDS011;10484;48.736;9.332;2022-11-15T09:02:56;14.73;;;9.17;;
20649;SDS011;10484;48.736;9.332;2022-11-15T09:05:21;16.20;;;10.90;;
20649;SDS011;10484;48.736;9.332;2022-11-15T09:07:47;13.87;;;9.93;;
20649;SDS011;10484;48.736;9.332;2022-11-15T09:10:18;15.02;;;10.77;;
20649;SDS011;10484;48.736;9.332;2022-11-15T09:12:43;16.53;;;8.80;;
20649;SDS011;10484;48.736;9.332;2022-11-15T09:15:10;11.90;;;8.23;;
20649;SDS011;10484;48.736;9.332;2022-11-15T09:17:35;20.00;;;10.90;;
20649;SDS011;10484;48.736;9.332;2022-11-15T09:20:01;13.57;;;9.30;;
20649;SDS011;10484;48.736;9.332;2022-11-15T09:22:26;18.70;;;10.80;;
20649;SDS011;10484;48.736;9.332;2022-11-15T09:24:53;13.63;;;8.75;;
20649;SDS011;10484;48.736;9.332;2022-11-15T09:27:19;15.63;;;9.23;;
20649;SDS011;10484;48.736;9.332;2022-11-15T09:29:44;15.50;;;9.10;;
20649;SDS011;10484;48.736;9.332;2022-11-15T09:32:10;13.50;;;8.80;;
20649;SDS011;10484;48.736;9.332;2022-11-15T09:34:35;12.90;;;8.40;;
20649;SDS011;10484;48.736;9.332;2022-11-15T09:37:01;16.23;;;9.47;;
20649;SDS011;10484;48.736;9.332;2022-11-15T09:39:26;13.90;;;9.43;;
20649;SDS011;10484;48.736;9.332;2022-11-15T09:44:41;13.80;;;10.20;;
20649;SDS011;10484;48.736;9.332;2022-11-15T09:49:52;16.10;;;9.20;;
20649;SDS011;10484;48.736;9.332;2022-11-15T09:52:20;15.17;;;10.07;;
20649;SDS011;10484;48.736;9.332;2022-11-15T09:54:47;15.20;;;10.90;;
20649;SDS011;10484;48.736;9.332;2022-11-15T09:57:31;14.40;;;10.40;;
20649;SDS011;10484;48.736;9.332;2022-11-15T10:00:22;17.37;;;11.07;;
20649;SDS011;10484;48.736;9.332;2022-11-15T10:03:09;18.10;;;10.90;;
20649;SDS011;10484;48.736;9.332;2022-11-15T10:05:38;17.13;;;9.60;;
20649;SDS011;10484;48.736;9.332;2022-11-15T10:08:16;16.47;;;9.90;;
20649;SDS011;10484;48.736;9.332;2022-11-15T10:11:06;14.90;;;9.63;;
20649;SDS011;10484;48.736;9.332;2022-11-15T10:13:35;17.80;;;9.80;;
20649;SDS011;10484;48.736;9.332;2022-11-15T10:16:17;13.37;;;9.60;;
20649;SDS011;10484;48.736;9.332;2022-11-15T10:19:01;13.03;;;9.20;;
20649;SDS011;10484;48.736;9.332;2022-11-15T10:21:55;14.40;;;8.53;;
20649;SDS011;10484;48.736;9.332;2022-11-15T10:24:41;15.03;;;9.97;;
20649;SDS011;10484;48.736;9.332;2022-11-15T10:27:11;15.23;;;10.37;;
20649;SDS011;10484;48.736;9.332;2022-11-15T10:29:43;15.90;;;10.20;;
20649;SDS011;10484;48.736;9.332;2022-11-15T10:32:11;13.10;;;9.60;;
20649;SDS011;10484;48.736;9.332;2022-11-15T10:34:38;16.13;;;9.60;;
20649;SDS011;10484;48.736;9.332;2022-11-15T10:37:03;11.93;;;8.73;;
20649;SDS011;10484;48.736;9.332;2022-11-15T10:39:29;12.90;;;9.47;;
20649;SDS011;10484;48.736;9.332;2022-11-15T10:41:54;16.80;;;9.23;;
20649;SDS011;10484;48.736;9.332;2022-11-15T10:44:26;12.60;;;9.60;;
20649;SDS011;10484;48.736;9.332;2022-11-15T10:51:50;16.93;;;9.80;;
20649;SDS011;10484;48.736;9.332;2022-11-15T10:54:23;14.10;;;8.67;;
20649;SDS011;10484;48.736;9.332;2022-11-15T10:56:56;16.83;;;10.23;;
20649;SDS011;10484;48.736;9.332;2022-11-15T10:59:30;14.30;;;9.87;;
20649;SDS011;10484;48.736;9.332;2022-11-15T11:02:00;14.67;;;9.47;;
20649;SDS011;10484;48.736;9.332;2022-11-15T11:04:26;14.80;;;10.23;;
20649;SDS011;10484;48.736;9.332;2022-11-15T11:06:58;12.13;;;9.53;;
20649;SDS011;10484;48.736;9.332;2022-11-15T11:09:30;17.30;;;10.17;;
20649;SDS011;10484;48.736;9.332;2022-11-15T11:12:04;14.00;;;8.80;;
20649;SDS011;10484;48.736;9.332;2022-11-15T11:14:35;14.07;;;9.00;;
20649;SDS011;10484;48.736;9.332;2022-11-15T11:17:03;16.30;;;8.80;;
20649;SDS011;10484;48.736;9.332;2022-11-15T11:19:43;14.67;;;9.77;;
20649;SDS011;10484;48.736;9.332;2022-11-15T11:25:04;12.33;;;8.50;;
20649;SDS011;10484;48.736;9.332;2022-11-15T11:27:43;14.57;;;8.67;;
20649;SDS011;10484;48.736;9.332;2022-11-15T11:33:33;11.17;;;8.10;;
20649;SDS011;10484;48.736;9.332;2022-11-15T11:41:46;12.90;;;7.70;;
20649;SDS011;10484;48.736;9.332;2022-11-15T11:47:01;8.67;;;6.90;;
20649;SDS011;10484;48.736;9.332;2022-11-15T11:49:50;9.67;;;6.17;;
20649;SDS011;10484;48.736;9.332;2022-11-15T11:54:54;10.83;;;6.83;;
20649;SDS011;10484;48.736;9.332;2022-11-15T11:57:33;9.47;;;7.37;;
20649;SDS011;10484;48.736;9.332;2022-11-15T12:05:40;8.60;;;6.90;;
20649;SDS011;10484;48.736;9.332;2022-11-15T12:13:55;9.20;;;7.90;;
20649;SDS011;10484;48.736;9.332;2022-11-15T12:16:27;12.20;;;6.93;;
20649;SDS011;10484;48.736;9.332;2022-11-15T12:18:59;8.17;;;6.90;;
20649;SDS011;10484;48.736;9.332;2022-11-15T12:24:21;11.60;;;7.17;;
20649;SDS011;10484;48.736;9.332;2022-11-15T12:26:59;11.60;;;7.90;;
20649;SDS011;10484;48.736;9.332;2022-11-15T12:29:38;13.47;;;8.17;;
20649;SDS011;10484;48.736;9.332;2022-11-15T12:32:14;12.27;;;8.00;;
20649;SDS011;10484;48.736;9.332;2022-11-15T12:34:46;10.20;;;7.80;;
20649;SDS011;10484;48.736;9.332;2022-11-15T12:42:38;10.07;;;8.57;;
20649;SDS011;10484;48.736;9.332;2022-11-15T12:45:27;12.07;;;8.20;;
20649;SDS011;10484;48.736;9.332;2022-11-15T12:58:45;13.33;;;8.70;;
20649;SDS011;10484;48.736;9.332;2022-11-15T13:06:50;15.57;;;9.13;;
20649;SDS011;10484;48.736;9.332;2022-11-15T13:12:09;14.93;;;8.60;;
20649;SDS011;10484;48.736;9.332;2022-11-15T13:14:51;12.40;;;8.50;;
20649;SDS011;10484;48.736;9.332;2022-11-15T13:17:53;14.17;;;9.73;;
20649;SDS011;10484;48.736;9.332;2022-11-15T13:20:22;13.30;;;7.83;;
20649;SDS011;10484;48.736;9.332;2022-11-15T13:28:30;8.93;;;7.23;;
20649;SDS011;10484;48.736;9.332;2022-11-15T13:30:59;11.90;;;8.30;;
20649;SDS011;10484;48.736;9.332;2022-11-15T13:33:35;11.80;;;8.10;;
20649;SDS011;10484;48.736;9.332;2022-11-15T13:38:38;15.40;;;8.77;;
20649;SDS011;10484;48.736;9.332;2022-11-15T13:41:18;12.67;;;8.37;;
20649;SDS011;10484;48.736;9.332;2022-11-15T13:43:49;13.57;;;7.70;;
20649;SDS011;10484;48.736;9.332;2022-11-15T13:48:43;12.20;;;7.30;;
20649;SDS011;10484;48.736;9.332;2022-11-15T13:54:07;14.23;;;6.63;;
20649;SDS011;10484;48.736;9.332;2022-11-15T13:56:48;8.00;;;6.57;;
20649;SDS011;10484;48.736;9.332;2022-11-15T13:59:28;9.73;;;6.10;;
20649;SDS011;10484;48.736;9.332;2022-11-15T14:01:57;10.10;;;6.27;;
20649;SDS011;10484;48.736;9.332;2022-11-15T14:04:26;9.83;;;5.20;;
20649;SDS011;10484;48.736;9.332;2022-11-15T14:06:58;7.80;;;5.40;;
20649;SDS011;10484;48.736;9.332;2022-11-15T14:11:58;8.73;;;4.97;;
20649;SDS011;10484;48.736;9.332;2022-11-15T14:14:25;8.53;;;5.33;;
20649;SDS011;10484;48.736;9.332;2022-11-15T14:16:53;6.93;;;5.03;;
20649;SDS011;10484;48.736;9.332;2022-11-15T14:24:44;10.80;;;6.00;;
20649;SDS011;10484;48.736;9.332;2022-11-15T14:27:21;12.00;;;5.20;;
20649;SDS011;10484;48.736;9.332;2022-11-15T14:29:51;6.27;;;4.57;;
20649;SDS011;10484;48.736;9.332;2022-11-15T14:32:22;6.23;;;4.33;;
20649;SDS011;10484;48.736;9.332;2022-11-15T14:34:57;6.17;;;4.93;;
20649;SDS011;10484;48.736;9.332;2022-11-15T14:37:30;5.83;;;4.63;;
20649;SDS011;10484;48.736;9.332;2022-11-15T14:40:03;7.30;;;6.03;;
20649;SDS011;10484;48.736;9.332;2022-11-15T14:42:31;9.33;;;5.57;;
20649;SDS011;10484;48.736;9.332;2022-11-15T14:44:57;9.10;;;4.87;;
20649;SDS011;10484;48.736;9.332;2022-11-15T14:47:23;6.20;;;5.03;;
20649;SDS011;10484;48.736;9.332;2022-11-15T14:49:49;7.33;;;5.23;;
20649;SDS011;10484;48.736;9.332;2022-11-15T14:54:53;9.87;;;5.73;;
20649;SDS011;10484;48.736;9.332;2022-11-15T14:57:20;5.40;;;4.90;;
20649;SDS011;10484;48.736;9.332;2022-11-15T14:59:46;11.67;;;5.83;;
20649;SDS011;10484;48.736;9.332;2022-11-15T15:04:42;9.30;;;5.80;;
20649;SDS011;10484;48.736;9.332;2022-11-15T15:07:08;7.10;;;4.97;;
20649;SDS011;10484;48.736;9.332;2022-11-15T15:09:33;6.90;;;4.93;;
20649;SDS011;10484;48.736;9.332;2022-11-15T15:11:59;8.27;;;5.03;;
20649;SDS011;10484;48.736;9.332;2022-11-15T15:14:25;10.33;;;5.97;;
20649;SDS011;10484;48.736;9.332;2022-11-15T15:16:50;10.00;;;5.10;;
20649;SDS011;10484;48.736;9.332;2022-11-15T15:19:16;7.90;;;4.60;;
20649;SDS011;10484;48.736;9.332;2022-11-15T15:21:41;6.10;;;4.90;;
20649;SDS011;10484;48.736;9.332;2022-11-15T15:24:08;4.63;;;4.23;;
20649;SDS011;10484;48.736;9.332;2022-11-15T15:26:39;4.50;;;3.93;;
20649;SDS011;10484;48.736;9.332;2022-11-15T15:29:06;5.17;;;3.70;;
20649;SDS011;10484;48.736;9.332;2022-11-15T15:31:33;6.00;;;4.60;;
20649;SDS011;10484;48.736;9.332;2022-11-15T15:33:59;6.70;;;5.00;;
20649;SDS011;10484;48.736;9.332;2022-11-15T15:36:25;8.23;;;5.00;;
20649;SDS011;10484;48.736;9.332;2022-11-15T15:38:50;6.73;;;4.63;;
20649;SDS011;10484;48.736;9.332;2022-11-15T15:41:17;14.43;;;4.70;;
20649;SDS011;10484;48.736;9.332;2022-11-15T15:43:43;7.33;;;4.80;;
20649;SDS011;10484;48.736;9.332;2022-11-15T15:46:16;8.50;;;4.90;;
20649;SDS011;10484;48.736;9.332;2022-11-15T15:48:43;7.00;;;4.63;;
20649;SDS011;10484;48.736;9.332;2022-11-15T15:51:09;10.60;;;4.70;;
20649;SDS011;10484;48.736;9.332;2022-11-15T15:53:35;12.63;;;4.70;;
20649;SDS011;10484;48.736;9.332;2022-11-15T15:56:00;6.53;;;4.30;;
20649;SDS011;10484;48.736;9.332;2022-11-15T15:58:26;6.17;;;3.77;;
20649;SDS011;10484;48.736;9.332;2022-11-15T16:00:52;7.30;;;4.70;;
20649;SDS011;10484;48.736;9.332;2022-11-15T16:03:17;5.53;;;4.73;;
20649;SDS011;10484;48.736;9.332;2022-11-15T16:05:43;8.10;;;5.83;;
20649;SDS011;10484;48.736;9.332;2022-11-15T16:08:12;4.60;;;3.97;;
20649;SDS011;10484;48.736;9.332;2022-11-15T16:10:45;6.43;;;5.20;;
20649;SDS011;10484;48.736;9.332;2022-11-15T16:13:11;10.10;;;5.50;;
20649;SDS011;10484;48.736;9.332;2022-11-15T16:15:37;6.93;;;4.90;;
20649;SDS011;10484;48.736;9.332;2022-11-15T16:18:03;7.60;;;6.10;;
20649;SDS011;10484;48.736;9.332;2022-11-15T16:20:31;10.03;;;5.57;;
20649;SDS011;10484;48.736;9.332;2022-11-15T16:23:07;10.73;;;5.40;;
20649;SDS011;10484;48.736;9.332;2022-11-15T16:25:55;10.13;;;6.53;;
20649;SDS011;10484;48.736;9.332;2022-11-15T16:28:25;10.10;;;6.30;;
20649;SDS011;10484;48.736;9.332;2022-11-15T16:31:02;6.00;;;5.00;;
20649;SDS011;10484;48.736;9.332;2022-11-15T16:33:30;8.13;;;5.20;;
20649;SDS011;10484;48.736;9.332;2022-11-15T16:35:56;8.40;;;5.27;;
20649;SDS011;10484;48.736;9.332;2022-11-15T16:38:22;7.70;;;5.90;;
20649;SDS011;10484;48.736;9.332;2022-11-15T16:40:48;8.07;;;5.20;;
20649;SDS011;10484;48.736;9.332;2022-11-15T16:43:14;14.87;;;5.33;;
20649;SDS011;10484;48.736;9.332;2022-11-15T16:45:39;7.50;;;5.20;;
20649;SDS011;10484;48.736;9.332;2022-11-15T16:48:05;7.67;;;5.63;;
20649;SDS011;10484;48.736;9.332;2022-11-15T16:50:32;8.80;;;5.30;;